DIAP/ABJ METAR and TAF weather

Enter ICAO airport designator
Station Type Date Time Source
DIAP METAR 2020/03/29 11:00 UTC NOAA

DIAP 291100Z 24014KT 9999 FEW020 31/26 Q1011 NOSIG


Station Type Date Time Source
DIAP Decoded METAR 2020/03/29 11:00 UTC NOAA

Abidjan, Cote d'Ivoire (DIAP) 05-15N 003-56W 8M
Mar 29, 2020 - 07:00 AM EDT / 2020.03.29 1100 UTC
Wind: from the WSW (240 degrees) at 16 MPH (14 KT):0
Visibility: greater than 7 mile(s):0
Sky conditions: mostly clear
Temperature: 87 F (31 C)
Heat index: 99.7 F (37.6 C):1
Dew Point: 78 F (26 C)
Relative Humidity: 74%
Pressure (altimeter): 29.85 in. Hg (1011 hPa)
ob: DIAP 291100Z 24014KT 9999 FEW020 31/26 Q1011 NOSIG
cycle: 11

Station Type Date Time Source
DIAP TAF 2020/03/29 08:39 UTC NOAA

TAF
AMD DIAP 290830Z 2908/3012 23008KT 9999 FEW012 PROB30
TEMPO 2915/2920 TS BKN012 FEW020CB

Example: see airport list